Hovedside
METAR-TAF:

METAR-TAF

Lufthavner :

Seinäjoki-Ilmajoki, Finland

Seinäjoki lufthavn

breddegrad: 62-41-37N, lengdegrad: 022-49-55E, høyde over havet: 91 m

Gjeldene værobservasjon

Denne rapporten ble laget for 14 minutter siden, klokken 21:50 UTC
Vind 3 kt fra Sørøst
Temperatur 14°C
Luftfuktighet 100%
Trykk 1011 hPa
Sikt 10 km eller mer
ingen skyer under 1500 m og ingen bygeskyer

METAR: EFSI 182150Z AUTO 13003KT CAVOK 14/14 Q1011

Tid: 01:04 (22:04 UTC)


TAF: fraværende

Værobservasjoner og værvarsel for over 4000 flyplasser (METAR- og TAF-rapporter).

Tilgjengelige stasjoner er representert av de røde og gule prikkene på kartet.

Hold musepekeren over prikken for å se navnet på stasjonen.

Klikk så for å se værobservasjoner og -varsler.

For å forandre kartet kan du klikke på den grønne knappen med svart kryss for å zoome inn, på den grønne knappen med strek for å zoome ut, eller på de grønne pilene for å se tilstøtende kart.


METAR-TAF: